Airfield :
LOGIN :

Register | Disclaimer

   EN    FR    IT 

 










Legend :    VFR   Marginal VFR   IFR   Intensive IFR   Very Intensive IFR
Visi :
Ceiling :
>= 8 km
>= 3000ft
5 to 8 km
1000 to 3000 ft
1500m to 5 km
500 to 1000 ft
800 to 1500m
200 to 500 ft
< 800m
< 200 ft
Symbols :   Thunderstorms  Fog  Heavy snow  Heavy precipitations  Wind > 20 kt
SIGMETs :     Misc.  Thunderstorms  Icing  Turbulence  Mountain Waves  Volcanic Ashes






- Airport Elevation : 245 ft


ETHS - Fassberg

CURRENT METAR :
  • 012120Z 27007KT 9999 BKN060 05/01 Q1016 BLU FCST CANCEL

EXPIRED METARs :
  • 012020Z 28005KT 9999 FEW035 BKN050 05/01 Q1016 BLU BLU
  • 011920Z 27005KT 9999 FEW037 BKN050 06/01 Q1016 BLU BLU

TAF AMD TAF ETHS
Valid from the 01 at 20:00 until the 02 at 05:00 UTC


012109Z 0120/0205 27005KT 9999 NSW FEW030 BKN045 CANCEL 2120



MET'MAP, your aeronautical weather chart ! - Copyright ORBIFLY December 2007 - Disclaimer

ORBIFLY MET'MAP TEAM :

Programming & Development : Alexandra Zaïnal
Concept & original design : Baudouin d'Aumeries
Assistance for programming : Marc-Olivier Méhu
Technical & hardware support : Manuel Goepfert

Contact : metmap@orbifly.com




SOURCES & CREDITS :

   NOAA